Terminal Aerodrome Forecast
Issued by NWS

Home | Current Version | Previous Version | Text Only | Print | Product List | Glossary On
Versions: 1 2 3 4 5 6 7 8 9 10 11 12 13
000
FTUS45 KABQ 300526
TAFLVS
TAF
KLVS 300526Z 3006/3106 25006KT P6SM VCSH BKN110
     FM301200 16009KT P6SM SCT150
     FM302000 20015G25KT P6SM VCTS SCT080CB
     FM302300 19012KT P6SM VCSH BKN080
     FM310200 20009KT P6SM BKN080=

USA.gov is the U.S. government's official web portal to all federal, state and local government web resources and services.